createdAt,value
2023-03-25T00:01:14.231Z,8.90
2023-03-25T00:03:50.519Z,8.90
2023-03-25T00:06:17.426Z,8.80
2023-03-25T00:08:44.333Z,8.80
2023-03-25T00:11:12.291Z,8.70
2023-03-25T00:13:40.342Z,8.70
2023-03-25T00:16:07.561Z,8.70
2023-03-25T00:18:34.274Z,8.70
2023-03-25T00:21:02.206Z,8.70
2023-03-25T00:23:29.428Z,8.80
2023-03-25T00:26:00.253Z,8.80
2023-03-25T00:28:31.803Z,8.80
2023-03-25T00:31:03.187Z,8.80
2023-03-25T00:33:29.991Z,8.80
2023-03-25T00:35:59.498Z,8.80
2023-03-25T00:38:33.312Z,8.80
2023-03-25T00:41:28.487Z,8.80
2023-03-25T00:43:56.506Z,8.80
2023-03-25T00:46:23.742Z,8.80
2023-03-25T00:48:50.784Z,8.70
2023-03-25T00:51:21.279Z,8.80
2023-03-25T00:53:54.818Z,8.70
2023-03-25T00:56:22.044Z,8.70
2023-03-25T00:58:48.710Z,8.70
2023-03-25T01:01:17.895Z,8.70
2023-03-25T01:03:44.779Z,8.70
2023-03-25T01:06:15.867Z,8.60
2023-03-25T01:08:43.164Z,8.70
2023-03-25T01:11:19.187Z,8.70
2023-03-25T01:13:46.067Z,8.60
2023-03-25T01:16:12.944Z,8.60
2023-03-25T01:18:39.658Z,8.60
2023-03-25T01:21:07.699Z,8.60
2023-03-25T01:23:34.834Z,8.60
2023-03-25T01:26:01.467Z,8.60
2023-03-25T01:28:28.244Z,8.70
2023-03-25T01:31:02.363Z,8.70
2023-03-25T01:33:29.001Z,8.80
2023-03-25T01:35:55.745Z,8.80
2023-03-25T01:38:23.496Z,8.80
2023-03-25T01:40:51.148Z,8.90
2023-03-25T01:43:18.248Z,8.90
2023-03-25T01:45:47.672Z,8.90
2023-03-25T01:48:36.111Z,8.90
2023-03-25T01:51:10.797Z,8.90
2023-03-25T01:53:37.465Z,8.90
2023-03-25T01:56:05.468Z,9.00
2023-03-25T01:58:32.367Z,9.00
2023-03-25T02:01:01.270Z,9.10
2023-03-25T02:03:28.056Z,9.10
2023-03-25T02:06:11.082Z,9.10
2023-03-25T02:08:39.754Z,9.10
2023-03-25T02:11:07.270Z,9.10
2023-03-25T02:13:33.920Z,9.10
2023-03-25T02:16:21.617Z,9.00
2023-03-25T02:18:51.468Z,9.10
2023-03-25T02:21:46.149Z,9.00
2023-03-25T02:24:36.277Z,9.00
2023-03-25T02:27:14.289Z,9.00
2023-03-25T02:29:59.322Z,9.00
2023-03-25T02:32:56.921Z,9.10
2023-03-25T02:35:41.752Z,9.00
2023-03-25T02:38:31.308Z,9.00
2023-03-25T02:41:04.695Z,9.00
2023-03-25T02:43:36.911Z,9.00
2023-03-25T02:46:07.015Z,8.90
2023-03-25T02:48:51.187Z,8.90
2023-03-25T02:51:21.362Z,9.00
2023-03-25T02:53:48.409Z,8.90
2023-03-25T02:56:16.875Z,9.00
2023-03-25T02:58:44.538Z,8.90
2023-03-25T03:01:14.671Z,8.90
2023-03-25T03:03:41.490Z,8.90
2023-03-25T03:06:08.613Z,8.90
2023-03-25T03:08:38.255Z,8.80
2023-03-25T03:11:16.916Z,8.80
2023-03-25T03:14:18.791Z,8.70
2023-03-25T03:17:08.401Z,8.70
2023-03-25T03:20:06.499Z,8.70
2023-03-25T03:22:35.816Z,8.70
2023-03-25T03:25:04.276Z,8.70
2023-03-25T03:27:37.166Z,8.70
2023-03-25T03:30:27.203Z,8.70
2023-03-25T03:33:04.156Z,8.70
2023-03-25T03:35:33.370Z,8.60
2023-03-25T03:38:03.769Z,8.50
2023-03-25T03:40:31.527Z,8.50
2023-03-25T03:42:58.152Z,8.50
2023-03-25T03:45:31.303Z,8.50
2023-03-25T03:47:58.353Z,8.40
2023-03-25T03:50:33.276Z,8.40
2023-03-25T03:53:25.002Z,8.40
2023-03-25T03:56:02.200Z,8.40
2023-03-25T03:58:31.480Z,8.30
2023-03-25T04:01:03.779Z,8.30
2023-03-25T04:03:38.819Z,8.30
2023-03-25T04:06:14.868Z,8.30
2023-03-25T04:08:59.386Z,8.20
2023-03-25T04:11:30.327Z,8.20
2023-03-25T04:13:58.045Z,8.10
2023-03-25T04:16:25.236Z,8.00
2023-03-25T04:18:53.636Z,8.10
2023-03-25T04:21:21.374Z,8.10
2023-03-25T04:23:49.800Z,8.10
2023-03-25T04:26:16.429Z,8.10
2023-03-25T04:28:44.599Z,8.10
2023-03-25T04:31:17.965Z,8.10
2023-03-25T04:33:48.379Z,8.10
2023-03-25T04:36:15.277Z,8.00
2023-03-25T04:38:45.763Z,8.10
2023-03-25T04:41:13.637Z,8.00
2023-03-25T04:43:40.468Z,8.00
2023-03-25T04:46:07.549Z,8.00
2023-03-25T04:48:34.588Z,8.00
2023-03-25T04:51:01.764Z,8.00
2023-03-25T04:53:28.989Z,8.00
2023-03-25T04:55:55.803Z,7.90
2023-03-25T04:58:22.471Z,7.90
2023-03-25T05:00:50.900Z,7.90
2023-03-25T05:03:18.565Z,7.90
2023-03-25T05:05:45.441Z,7.70
2023-03-25T05:08:12.297Z,7.70
2023-03-25T05:10:39.244Z,7.80
2023-03-25T05:13:07.657Z,7.80
2023-03-25T05:15:41.352Z,7.60
2023-03-25T05:18:13.916Z,7.60
2023-03-25T05:20:41.881Z,7.60
2023-03-25T05:23:12.238Z,7.50
2023-03-25T05:25:40.284Z,7.50
2023-03-25T05:28:09.923Z,7.40
2023-03-25T05:30:39.381Z,7.40
2023-03-25T05:33:06.539Z,7.40
2023-03-25T05:35:33.345Z,7.40
2023-03-25T05:38:00.480Z,7.40
2023-03-25T05:40:27.792Z,7.40
2023-03-25T05:42:56.156Z,7.40
2023-03-25T05:45:23.745Z,7.40
2023-03-25T05:47:51.276Z,7.30
2023-03-25T05:50:18.158Z,7.30
2023-03-25T05:52:45.489Z,7.40
2023-03-25T05:55:16.698Z,7.40
2023-03-25T05:57:43.694Z,7.50
2023-03-25T06:00:12.800Z,7.50
2023-03-25T06:02:40.007Z,7.50
2023-03-25T06:05:07.537Z,7.60
2023-03-25T06:07:34.314Z,7.70
2023-03-25T06:10:01.386Z,7.80
2023-03-25T06:12:28.886Z,8.00
2023-03-25T06:14:55.499Z,8.50
2023-03-25T06:17:22.453Z,9.20
2023-03-25T06:19:49.851Z,10.60
2023-03-25T06:22:16.459Z,12.30
2023-03-25T06:24:43.232Z,13.90
2023-03-25T06:27:14.352Z,14.90
2023-03-25T06:29:43.751Z,15.90
2023-03-25T06:32:12.016Z,16.10
2023-03-25T06:34:39.243Z,15.90
2023-03-25T06:37:06.317Z,15.40
2023-03-25T06:39:33.702Z,14.20
2023-03-25T06:42:00.968Z,12.90
2023-03-25T06:44:27.872Z,11.90
2023-03-25T06:46:54.726Z,11.10
2023-03-25T06:49:21.531Z,10.40
2023-03-25T06:51:48.343Z,9.90
2023-03-25T06:54:15.369Z,9.60
2023-03-25T06:56:42.022Z,9.90
2023-03-25T06:59:08.634Z,10.30
2023-03-25T07:01:35.260Z,10.70
2023-03-25T07:04:01.904Z,11.50
2023-03-25T07:06:28.547Z,12.90
2023-03-25T07:08:55.141Z,13.40
2023-03-25T07:11:25.917Z,13.10
2023-03-25T07:13:53.901Z,12.60
2023-03-25T07:16:21.812Z,12.20
2023-03-25T07:18:50.122Z,11.60
2023-03-25T07:21:16.974Z,11.20
2023-03-25T07:23:43.584Z,10.80
2023-03-25T07:26:10.552Z,10.60
2023-03-25T07:28:38.104Z,10.30
2023-03-25T07:31:23.157Z,10.20
2023-03-25T07:33:51.304Z,10.10
2023-03-25T07:36:18.325Z,10.00
2023-03-25T07:38:45.346Z,10.20
2023-03-25T07:41:12.675Z,10.30
2023-03-25T07:43:39.753Z,10.20
2023-03-25T07:46:08.452Z,10.20
2023-03-25T07:48:37.300Z,10.30
2023-03-25T07:51:04.443Z,10.20
2023-03-25T07:53:33.980Z,10.00
2023-03-25T07:56:00.937Z,10.00
2023-03-25T07:58:27.538Z,10.10
2023-03-25T08:00:56.943Z,9.90
2023-03-25T08:03:23.846Z,9.80
2023-03-25T08:05:50.786Z,9.80
2023-03-25T08:08:17.540Z,9.80
2023-03-25T08:10:44.670Z,9.70
2023-03-25T08:13:11.967Z,9.70
2023-03-25T08:15:39.355Z,9.60
2023-03-25T08:18:07.197Z,9.60
2023-03-25T08:20:34.527Z,9.60
2023-03-25T08:23:01.399Z,9.60
2023-03-25T08:25:29.353Z,9.70
2023-03-25T08:27:56.040Z,9.80
2023-03-25T08:30:23.001Z,9.80
2023-03-25T08:32:54.617Z,9.80
2023-03-25T08:35:22.627Z,9.90
2023-03-25T08:37:49.418Z,9.90
2023-03-25T08:40:19.917Z,9.90
2023-03-25T08:42:46.713Z,10.10
2023-03-25T08:45:15.172Z,10.10
2023-03-25T08:47:42.413Z,10.10
2023-03-25T08:50:09.460Z,10.00
2023-03-25T08:52:36.095Z,10.00
2023-03-25T08:55:03.221Z,10.00
2023-03-25T08:57:29.866Z,10.00
2023-03-25T09:03:43.490Z,10.10
2023-03-25T09:06:10.512Z,10.10
2023-03-25T09:08:37.192Z,10.20
2023-03-25T09:11:04.248Z,10.20
2023-03-25T09:13:30.856Z,10.30
2023-03-25T09:16:00.612Z,10.50
2023-03-25T09:18:27.280Z,10.70
2023-03-25T09:20:58.864Z,10.90
2023-03-25T09:23:26.155Z,11.00
2023-03-25T09:25:53.228Z,10.90
2023-03-25T09:28:20.306Z,10.90
2023-03-25T09:30:46.946Z,10.90
2023-03-25T09:33:14.231Z,11.00
2023-03-25T09:35:41.681Z,11.00
2023-03-25T09:38:08.376Z,11.10
2023-03-25T09:40:35.392Z,11.10
2023-03-25T09:43:20.697Z,11.00
2023-03-25T09:45:48.185Z,10.80
2023-03-25T09:48:26.997Z,10.70
2023-03-25T09:50:53.772Z,10.50
2023-03-25T09:53:32.285Z,10.70
2023-03-25T09:55:58.959Z,11.00
2023-03-25T09:58:41.002Z,11.20
2023-03-25T10:01:27.155Z,11.30
2023-03-25T10:04:20.527Z,11.30
2023-03-25T10:06:58.159Z,11.40
2023-03-25T10:09:37.242Z,11.40
2023-03-25T10:12:24.694Z,11.40
2023-03-25T10:15:27.215Z,11.60
2023-03-25T10:18:13.142Z,11.70
2023-03-25T10:20:39.750Z,11.80
2023-03-25T10:23:18.498Z,11.80
2023-03-25T10:25:46.820Z,11.80
2023-03-25T10:28:18.703Z,11.90
2023-03-25T10:30:50.903Z,12.10
2023-03-25T10:33:52.385Z,12.40
2023-03-25T10:36:28.588Z,12.60
2023-03-25T10:38:55.633Z,12.70
2023-03-25T10:41:27.996Z,12.70
2023-03-25T10:43:54.642Z,12.90
2023-03-25T10:46:30.373Z,12.80
2023-03-25T10:48:57.047Z,12.80
2023-03-25T10:51:31.563Z,12.90
2023-03-25T10:53:58.229Z,12.90
2023-03-25T10:56:35.588Z,12.90
2023-03-25T10:59:11.460Z,12.80
2023-03-25T11:01:39.490Z,12.90
2023-03-25T11:04:07.649Z,12.80
2023-03-25T11:06:36.713Z,13.00
2023-03-25T11:09:19.249Z,13.10
2023-03-25T11:11:46.388Z,13.50
2023-03-25T11:14:13.351Z,13.60
2023-03-25T11:16:46.686Z,13.30
2023-03-25T11:19:18.263Z,13.30
2023-03-25T11:21:47.851Z,13.30
2023-03-25T11:24:16.130Z,13.00
2023-03-25T11:26:42.823Z,12.70
2023-03-25T11:29:12.860Z,12.40
2023-03-25T11:31:39.665Z,12.10
2023-03-25T11:34:12.161Z,12.10
2023-03-25T11:36:48.592Z,12.20
2023-03-25T11:39:37.225Z,12.20
2023-03-25T11:42:32.972Z,12.40
2023-03-25T11:45:00.946Z,12.30
2023-03-25T11:47:31.555Z,12.30
2023-03-25T11:49:58.243Z,12.10
2023-03-25T11:52:32.098Z,12.00
2023-03-25T11:54:59.913Z,11.90
2023-03-25T11:57:28.114Z,12.00
2023-03-25T12:00:25.036Z,12.10
2023-03-25T12:03:15.111Z,12.20
2023-03-25T12:06:19.122Z,12.20
2023-03-25T12:08:51.545Z,12.30
2023-03-25T12:11:42.518Z,12.60
2023-03-25T12:14:40.752Z,12.80
2023-03-25T12:17:28.677Z,13.00
2023-03-25T12:20:11.611Z,13.20
2023-03-25T12:22:54.487Z,13.40
2023-03-25T12:26:04.428Z,13.60
2023-03-25T12:29:00.724Z,13.90
2023-03-25T12:31:53.916Z,14.00
2023-03-25T12:34:29.688Z,13.80
2023-03-25T12:37:01.706Z,13.60
2023-03-25T12:39:43.700Z,13.50
2023-03-25T12:42:46.196Z,13.40
2023-03-25T12:45:40.997Z,13.60
2023-03-25T12:48:18.359Z,13.80
2023-03-25T12:51:07.236Z,13.70
2023-03-25T12:53:46.459Z,13.70
2023-03-25T12:56:26.650Z,14.10
2023-03-25T12:59:25.428Z,14.20
2023-03-25T13:02:05.689Z,14.10
2023-03-25T13:04:42.380Z,13.90
2023-03-25T13:07:14.663Z,14.10
2023-03-25T13:10:23.742Z,14.40
2023-03-25T13:12:55.540Z,14.70
2023-03-25T13:15:31.936Z,14.60
2023-03-25T13:18:18.482Z,14.90
2023-03-25T13:20:51.687Z,14.90
2023-03-25T13:23:21.724Z,14.90
2023-03-25T13:26:25.678Z,15.10
2023-03-25T13:29:03.778Z,15.20
2023-03-25T13:31:35.874Z,15.10
2023-03-25T13:34:28.848Z,14.70
2023-03-25T13:37:21.618Z,14.30
2023-03-25T13:39:50.975Z,13.70
2023-03-25T13:42:36.411Z,13.40
2023-03-25T13:45:03.155Z,13.10
2023-03-25T13:47:36.063Z,12.70
2023-03-25T13:50:36.784Z,12.30
2023-03-25T13:53:20.989Z,12.10
2023-03-25T13:56:31.874Z,12.00
2023-03-25T13:59:26.066Z,12.00
2023-03-25T14:02:02.666Z,12.20
2023-03-25T14:04:41.666Z,12.40
2023-03-25T14:07:17.095Z,12.50
2023-03-25T14:09:58.802Z,12.60
2023-03-25T14:12:33.547Z,12.70
2023-03-25T14:15:04.626Z,12.90
2023-03-25T14:17:31.325Z,13.00
2023-03-25T14:19:58.466Z,13.10
2023-03-25T14:22:28.325Z,13.00
2023-03-25T14:24:54.940Z,12.80
2023-03-25T14:27:30.238Z,12.90
2023-03-25T14:30:07.090Z,12.80
2023-03-25T14:32:33.751Z,12.80
2023-03-25T14:35:34.219Z,12.60
2023-03-25T14:38:10.085Z,12.40
2023-03-25T14:40:47.946Z,12.30
2023-03-25T14:43:26.524Z,12.40
2023-03-25T14:46:11.460Z,12.70
2023-03-25T14:48:45.930Z,12.70
2023-03-25T14:51:26.612Z,12.70
2023-03-25T14:54:09.964Z,12.90
2023-03-25T14:56:45.428Z,13.10
2023-03-25T14:59:17.248Z,13.30
2023-03-25T15:01:44.395Z,13.60
2023-03-25T15:04:24.755Z,13.80
2023-03-25T15:06:51.868Z,13.90
2023-03-25T15:09:18.474Z,13.90
2023-03-25T15:11:56.895Z,13.60
2023-03-25T15:14:27.704Z,13.40
2023-03-25T15:17:11.744Z,13.20
2023-03-25T15:20:10.417Z,13.20
2023-03-25T15:22:37.837Z,13.30
2023-03-25T15:25:11.632Z,13.40
2023-03-25T15:27:54.853Z,13.30
2023-03-25T15:30:52.221Z,13.10
2023-03-25T15:33:41.058Z,12.90
2023-03-25T15:36:36.435Z,12.60
2023-03-25T15:39:26.378Z,12.40
2023-03-25T15:42:02.262Z,12.30
2023-03-25T15:44:47.449Z,12.20
2023-03-25T15:47:32.209Z,12.00
2023-03-25T15:50:13.069Z,11.80
2023-03-25T15:53:01.050Z,11.30
2023-03-25T15:55:31.189Z,11.00
2023-03-25T15:58:03.335Z,11.00
2023-03-25T16:00:32.797Z,11.10
2023-03-25T16:03:02.662Z,11.20
2023-03-25T16:05:34.317Z,11.10
2023-03-25T16:08:14.512Z,11.00
2023-03-25T16:10:41.474Z,11.10
2023-03-25T16:13:12.980Z,11.10
2023-03-25T16:15:39.686Z,11.00
2023-03-25T16:18:07.413Z,10.80
2023-03-25T16:20:34.845Z,10.80
2023-03-25T16:23:03.392Z,10.80
2023-03-25T16:25:38.230Z,10.80
2023-03-25T16:28:14.576Z,10.80
2023-03-25T16:30:43.133Z,10.70
2023-03-25T16:33:12.765Z,10.50
2023-03-25T16:35:44.234Z,10.50
2023-03-25T16:38:17.712Z,10.40
2023-03-25T16:40:46.790Z,10.30
2023-03-25T16:43:15.403Z,10.30
2023-03-25T16:45:42.261Z,10.30
2023-03-25T16:48:27.478Z,10.20
2023-03-25T16:50:54.528Z,10.20
2023-03-25T16:53:21.511Z,10.20
2023-03-25T16:55:58.995Z,10.10
2023-03-25T16:58:27.069Z,10.10
2023-03-25T17:00:55.298Z,10.00
2023-03-25T17:03:41.809Z,9.90
2023-03-25T17:06:35.268Z,9.90
2023-03-25T17:09:04.058Z,9.90
2023-03-25T17:11:31.531Z,9.80
2023-03-25T17:14:03.556Z,9.90
2023-03-25T17:16:31.416Z,9.80
2023-03-25T17:18:58.159Z,9.80
2023-03-25T17:21:30.242Z,9.80
2023-03-25T17:24:00.997Z,9.90
2023-03-25T17:26:32.222Z,9.80
2023-03-25T17:29:06.473Z,9.80
2023-03-25T17:31:34.072Z,9.80
2023-03-25T17:34:13.715Z,9.80
2023-03-25T17:36:41.737Z,9.70
2023-03-25T17:39:26.245Z,9.60
2023-03-25T17:42:14.065Z,9.50
2023-03-25T17:44:43.301Z,9.40
2023-03-25T17:47:14.772Z,9.40
2023-03-25T17:49:41.382Z,9.30
2023-03-25T17:52:08.834Z,9.10
2023-03-25T17:54:36.310Z,9.10
2023-03-25T17:57:05.671Z,9.00
2023-03-25T17:59:32.330Z,9.00
2023-03-25T18:01:58.984Z,8.90
2023-03-25T18:04:25.879Z,8.90
2023-03-25T18:06:53.036Z,8.90
2023-03-25T18:09:23.813Z,8.90
2023-03-25T18:11:53.113Z,8.90
2023-03-25T18:14:20.842Z,8.80
2023-03-25T18:16:47.493Z,8.80
2023-03-25T18:19:16.163Z,8.80
2023-03-25T18:21:42.991Z,8.70
2023-03-25T18:24:09.624Z,8.70
2023-03-25T18:26:36.573Z,8.70
2023-03-25T18:29:05.199Z,8.60
2023-03-25T18:31:32.103Z,8.60
2023-03-25T18:33:58.771Z,8.60
2023-03-25T18:36:25.648Z,8.60
2023-03-25T18:38:52.558Z,8.70
2023-03-25T18:41:19.220Z,8.80
2023-03-25T18:43:46.277Z,8.70
2023-03-25T18:46:14.100Z,8.80
2023-03-25T18:48:41.030Z,8.80
2023-03-25T18:51:10.392Z,8.80
2023-03-25T18:53:37.233Z,8.80
2023-03-25T18:56:04.954Z,8.80
2023-03-25T18:58:32.864Z,8.80
2023-03-25T19:01:00.581Z,8.80
2023-03-25T19:03:39.428Z,8.80
2023-03-25T19:06:08.262Z,8.80
2023-03-25T19:08:34.875Z,8.90
2023-03-25T19:11:16.153Z,8.90
2023-03-25T19:13:46.273Z,9.00
2023-03-25T19:16:12.925Z,9.00
2023-03-25T19:18:39.539Z,9.00
2023-03-25T19:21:07.138Z,9.00
2023-03-25T19:23:35.167Z,9.00
2023-03-25T19:26:01.844Z,9.00
2023-03-25T19:28:28.509Z,9.00
2023-03-25T19:30:58.899Z,9.00
2023-03-25T19:33:25.723Z,9.00
2023-03-25T19:35:54.328Z,9.00
2023-03-25T19:38:22.927Z,9.10
2023-03-25T19:40:50.754Z,9.10
2023-03-25T19:43:17.682Z,9.00
2023-03-25T19:45:44.915Z,8.90
2023-03-25T19:48:11.861Z,8.90
2023-03-25T19:50:40.944Z,8.80
2023-03-25T19:53:07.798Z,8.70
2023-03-25T19:55:34.426Z,8.60
2023-03-25T19:58:02.242Z,8.60
2023-03-25T20:00:28.995Z,8.60
2023-03-25T20:03:01.656Z,8.60
2023-03-25T20:05:29.808Z,8.70
2023-03-25T20:07:56.447Z,8.60
2023-03-25T20:10:25.703Z,8.60
2023-03-25T20:12:52.412Z,8.50
2023-03-25T20:15:19.388Z,8.50
2023-03-25T20:17:47.950Z,8.30
2023-03-25T20:20:14.786Z,8.10
2023-03-25T20:22:42.060Z,8.00
2023-03-25T20:25:10.017Z,7.90
2023-03-25T20:27:36.941Z,7.80
2023-03-25T20:30:05.747Z,7.70
2023-03-25T20:32:40.514Z,7.70
2023-03-25T20:35:09.151Z,7.60
2023-03-25T20:37:37.040Z,7.60
2023-03-25T20:40:05.881Z,7.60
2023-03-25T20:42:32.480Z,7.60
2023-03-25T20:44:59.114Z,7.50
2023-03-25T20:47:26.156Z,7.60
2023-03-25T20:49:53.246Z,7.50
2023-03-25T20:52:20.987Z,7.50
2023-03-25T20:54:49.362Z,7.50
2023-03-25T20:57:16.471Z,7.50
2023-03-25T20:59:43.172Z,7.40
2023-03-25T21:02:10.700Z,7.30
2023-03-25T21:04:38.206Z,7.10
2023-03-25T21:07:05.010Z,7.10
2023-03-25T21:09:31.615Z,7.10
2023-03-25T21:11:58.289Z,7.10
2023-03-25T21:14:24.902Z,7.10
2023-03-25T21:16:51.618Z,7.10
2023-03-25T21:19:18.330Z,7.10
2023-03-25T21:21:45.213Z,7.10
2023-03-25T21:24:12.367Z,7.20
2023-03-25T21:26:38.973Z,7.20
2023-03-25T21:29:05.592Z,7.20
2023-03-25T21:31:32.507Z,7.20
2023-03-25T21:34:00.248Z,7.20
2023-03-25T21:36:28.308Z,7.20
2023-03-25T21:38:59.689Z,7.20
2023-03-25T21:41:26.835Z,7.20
2023-03-25T21:43:53.504Z,7.20
2023-03-25T21:46:24.189Z,7.10
2023-03-25T21:48:51.122Z,7.10
2023-03-25T21:51:17.772Z,7.00
2023-03-25T21:53:45.419Z,7.00
2023-03-25T21:56:24.541Z,6.90
2023-03-25T21:58:51.596Z,6.90
2023-03-25T22:01:22.866Z,6.90
2023-03-25T22:03:53.983Z,6.90
2023-03-25T22:06:22.498Z,6.90
2023-03-25T22:08:49.283Z,6.80
2023-03-25T22:11:18.064Z,6.80
2023-03-25T22:13:44.800Z,6.80
2023-03-25T22:16:13.050Z,6.90
2023-03-25T22:18:39.996Z,6.90
2023-03-25T22:21:14.414Z,7.00
2023-03-25T22:23:41.200Z,7.10
2023-03-25T22:26:08.934Z,7.20
2023-03-25T22:28:36.059Z,7.20
2023-03-25T22:31:13.436Z,7.10
2023-03-25T22:33:40.325Z,7.10
2023-03-25T22:36:11.868Z,7.20
2023-03-25T22:38:39.938Z,7.20
2023-03-25T22:41:07.311Z,7.20
2023-03-25T22:43:34.468Z,7.10
2023-03-25T22:46:02.791Z,7.10
2023-03-25T22:48:29.793Z,7.20
2023-03-25T22:50:56.658Z,7.10
2023-03-25T22:53:24.042Z,7.20
2023-03-25T22:55:54.703Z,7.20
2023-03-25T22:58:22.670Z,7.20
2023-03-25T23:00:49.514Z,7.20
2023-03-25T23:03:16.307Z,7.20
2023-03-25T23:05:43.013Z,7.20
2023-03-25T23:08:09.623Z,7.20
2023-03-25T23:10:36.327Z,7.20
2023-03-25T23:13:03.071Z,7.10
2023-03-25T23:15:30.102Z,7.10
2023-03-25T23:17:56.803Z,7.00
2023-03-25T23:20:23.544Z,6.90
2023-03-25T23:22:50.316Z,6.80
2023-03-25T23:25:16.911Z,6.70
2023-03-25T23:27:44.879Z,6.60
2023-03-25T23:30:11.848Z,6.60
2023-03-25T23:32:39.866Z,6.60
2023-03-25T23:35:09.252Z,6.70
2023-03-25T23:37:35.869Z,6.70
2023-03-25T23:40:02.727Z,6.70
2023-03-25T23:42:34.891Z,6.70
2023-03-25T23:45:02.284Z,6.70
2023-03-25T23:47:29.009Z,6.70
2023-03-25T23:49:58.013Z,6.70
2023-03-25T23:52:25.008Z,6.70
2023-03-25T23:54:51.761Z,6.70
2023-03-25T23:57:18.504Z,6.70
2023-03-25T23:59:46.367Z,6.70
